Time;durP1;ratioP1;P1;durP2;ratioP2;P2;SDS_P1;SDS_P2;PMS_P1;PMS_P2;Temp;Humidity;BMP_temperature;BMP_pressure;BME280_temperature;BME280_humidity;BME280_pressure;Samples;Min_cycle;Max_cycle;Signal;HPM_P1;HPM_P2
2022/11/27 00:01:42;;;;;;;;;;;25.70;94.00;;;;;;5068632;28;19912;-71
2022/11/27 00:04:10;;;;;;;;;;;25.80;94.20;;;;;;5060144;28;19912;-73
2022/11/27 00:06:38;;;;;;;;;;;25.80;93.90;;;;;;5074054;28;19981;-71
2022/11/27 00:09:06;;;;;;;;;;;25.80;93.80;;;;;;5060713;28;19912;-71
2022/11/27 00:11:33;;;;;;;;;;;25.90;93.50;;;;;;5073272;28;19950;-71
2022/11/27 00:14:00;;;;;;;;;;;25.90;93.30;;;;;;5063775;28;19916;-72
2022/11/27 00:16:27;;;;;;;;;;;26.00;93.60;;;;;;5072218;28;20302;-71
2022/11/27 00:18:54;;;;;;;;;;;26.20;93.60;;;;;;5061089;28;19917;-71
2022/11/27 00:21:24;;;;;;;;;;;26.40;92.80;;;;;;5051772;28;19984;-70
2022/11/27 00:23:52;;;;;;;;;;;26.40;92.70;;;;;;5064332;28;19944;-72
2022/11/27 00:26:19;;;;;;;;;;;26.50;92.50;;;;;;5072323;28;19908;-71
2022/11/27 00:28:46;;;;;;;;;;;26.60;92.60;;;;;;5061506;28;19955;-71
2022/11/27 00:31:17;;;;;;;;;;;26.60;92.30;;;;;;5058954;28;19916;-71
2022/11/27 00:33:44;;;;;;;;;;;26.60;92.00;;;;;;5067391;28;20281;-70
2022/11/27 00:36:11;;;;;;;;;;;26.70;92.00;;;;;;5069119;28;19955;-70
2022/11/27 00:38:38;;;;;;;;;;;26.60;92.10;;;;;;5064730;28;19915;-72
2022/11/27 00:41:08;;;;;;;;;;;26.40;92.00;;;;;;5050465;28;20015;-70
2022/11/27 00:43:36;;;;;;;;;;;26.30;92.20;;;;;;5052145;28;19912;-70
2022/11/27 00:46:02;;;;;;;;;;;26.30;92.30;;;;;;5054062;28;19967;-71
2022/11/27 00:48:29;;;;;;;;;;;26.20;92.50;;;;;;5044040;28;19908;-72
2022/11/27 00:51:03;;;;;;;;;;;26.10;92.50;;;;;;5058777;28;19917;-72
2022/11/27 00:53:30;;;;;;;;;;;26.10;92.50;;;;;;5058641;28;19908;-70
2022/11/27 00:55:57;;;;;;;;;;;26.10;92.50;;;;;;5051538;28;19917;-69
2022/11/27 00:58:24;;;;;;;;;;;26.30;92.50;;;;;;5058298;28;19952;-69
2022/11/27 01:00:54;;;;;;;;;;;26.50;92.20;;;;;;5058076;28;19919;-69
2022/11/27 01:03:22;;;;;;;;;;;26.80;91.90;;;;;;5050827;28;19917;-72
2022/11/27 01:05:48;;;;;;;;;;;27.00;91.60;;;;;;5058885;28;20981;-73
2022/11/27 01:08:15;;;;;;;;;;;27.40;91.30;;;;;;5055843;28;19912;-72
2022/11/27 01:10:49;;;;;;;;;;;27.60;90.90;;;;;;5055156;28;19977;-72
2022/11/27 01:13:16;;;;;;;;;;;27.80;90.40;;;;;;5056330;28;19909;-71
2022/11/27 01:15:43;;;;;;;;;;;27.80;90.40;;;;;;5058309;28;20331;-71
2022/11/27 01:18:10;;;;;;;;;;;27.80;89.60;;;;;;5058329;28;19955;-69
2022/11/27 01:20:38;;;;;;;;;;;27.80;89.90;;;;;;5057548;28;19916;-71
2022/11/27 01:23:06;;;;;;;;;;;27.80;90.00;;;;;;5053600;28;19924;-70
2022/11/27 01:25:35;;;;;;;;;;;27.90;89.60;;;;;;5056674;28;20002;-72
2022/11/27 01:28:02;;;;;;;;;;;28.00;89.00;;;;;;5057513;28;19912;-70
2022/11/27 01:30:29;;;;;;;;;;;27.90;88.70;;;;;;5047603;28;19921;-71
2022/11/27 01:32:55;;;;;;;;;;;27.80;88.20;;;;;;5059135;28;20365;-69
2022/11/27 01:35:22;;;;;;;;;;;27.80;89.40;;;;;;5056972;28;19909;-70
2022/11/27 01:37:48;;;;;;;;;;;27.80;88.50;;;;;;5058792;28;20258;-72
2022/11/27 01:40:15;;;;;;;;;;;27.90;89.30;;;;;;5040079;28;20614;-72
2022/11/27 01:42:42;;;;;;;;;;;28.00;88.80;;;;;;5044702;28;20425;-71
2022/11/27 01:45:09;;;;;;;;;;;28.10;87.80;;;;;;5046588;28;20015;-71
2022/11/27 01:47:39;;;;;;;;;;;28.30;88.40;;;;;;5039619;28;19967;-71
2022/11/27 01:50:11;;;;;;;;;;;28.50;87.90;;;;;;5056966;28;19916;-71
2022/11/27 01:52:40;;;;;;;;;;;28.70;87.10;;;;;;5056238;28;19915;-72
2022/11/27 01:55:17;;;;;;;;;;;29.00;86.00;;;;;;5057640;28;19912;-70
2022/11/27 01:57:49;;;;;;;;;;;29.10;86.50;;;;;;5058142;28;19908;-70
2022/11/27 02:00:16;;;;;;;;;;;29.70;85.30;;;;;;5040299;28;20519;-71
2022/11/27 02:02:43;;;;;;;;;;;29.90;84.00;;;;;;5047380;28;20174;-69
2022/11/27 02:05:12;;;;;;;;;;;29.90;83.80;;;;;;5055259;28;19955;-69
2022/11/27 02:07:38;;;;;;;;;;;30.00;82.40;;;;;;5055925;28;20717;-71
2022/11/27 02:10:05;;;;;;;;;;;30.20;82.90;;;;;;5056465;28;20361;-71
2022/11/27 02:12:54;;;;;;;;;;;30.70;82.30;;;;;;5055439;28;20341;-72
2022/11/27 02:15:33;;;;;;;;;;;31.10;81.40;;;;;;5056386;28;19919;-71
2022/11/27 02:18:06;;;;;;;;;;;31.30;79.00;;;;;;5059917;28;19954;-69
2022/11/27 02:20:44;;;;;;;;;;;31.40;79.70;;;;;;5038878;28;20362;-70
2022/11/27 02:23:29;;;;;;;;;;;31.50;79.70;;;;;;5053680;28;19921;-70
2022/11/27 02:26:13;;;;;;;;;;;31.50;80.60;;;;;;5056824;28;19912;-72
2022/11/27 02:28:39;;;;;;;;;;;31.50;79.10;;;;;;5056182;28;19909;-71
2022/11/27 02:31:12;;;;;;;;;;;31.90;78.50;;;;;;5067036;28;19920;-73
2022/11/27 02:33:41;;;;;;;;;;;31.90;79.00;;;;;;5036773;28;20381;-72
2022/11/27 02:36:11;;;;;;;;;;;31.50;79.60;;;;;;5044189;28;20021;-70
2022/11/27 02:38:40;;;;;;;;;;;31.20;79.80;;;;;;5053557;28;19935;-72
2022/11/27 02:41:11;;;;;;;;;;;31.20;80.60;;;;;;5057453;28;19997;-72
2022/11/27 02:43:42;;;;;;;;;;;31.00;80.30;;;;;;5055810;28;19912;-73
2022/11/27 02:46:10;;;;;;;;;;;30.80;80.00;;;;;;5055541;28;20384;-73
2022/11/27 02:48:45;;;;;;;;;;;30.70;80.80;;;;;;5056175;28;19909;-72
2022/11/27 02:51:12;;;;;;;;;;;30.60;81.80;;;;;;5057972;28;20345;-72
2022/11/27 02:53:50;;;;;;;;;;;30.30;82.60;;;;;;5057471;28;19909;-72
2022/11/27 02:56:20;;;;;;;;;;;29.90;82.60;;;;;;5056897;28;19919;-71
2022/11/27 02:58:47;;;;;;;;;;;29.70;83.30;;;;;;5053543;28;19919;-71
2022/11/27 03:01:15;;;;;;;;;;;29.60;83.90;;;;;;5053371;28;19916;-70
2022/11/27 03:03:43;;;;;;;;;;;29.30;85.10;;;;;;5045583;28;20325;-72
2022/11/27 03:06:11;;;;;;;;;;;28.90;86.50;;;;;;5050972;28;19909;-69
2022/11/27 03:08:45;;;;;;;;;;;28.50;88.50;;;;;;5049375;28;19920;-69
2022/11/27 03:11:14;;;;;;;;;;;28.20;88.50;;;;;;5058089;28;20383;-70
2022/11/27 03:13:44;;;;;;;;;;;27.80;89.60;;;;;;5043571;28;19948;-70
2022/11/27 03:16:11;;;;;;;;;;;27.70;90.10;;;;;;5041288;28;19913;-70
2022/11/27 03:18:41;;;;;;;;;;;27.60;89.70;;;;;;5048116;28;19908;-70
2022/11/27 03:21:18;;;;;;;;;;;27.40;89.90;;;;;;5055275;28;20377;-71
2022/11/27 03:23:45;;;;;;;;;;;27.20;89.90;;;;;;5044577;28;19964;-71
2022/11/27 03:26:11;;;;;;;;;;;27.10;90.20;;;;;;5035990;28;19967;-69
2022/11/27 03:28:38;;;;;;;;;;;27.70;90.10;;;;;;5048558;28;20008;-70
2022/11/27 03:31:05;;;;;;;;;;;29.00;87.10;;;;;;5055693;28;19921;-70
2022/11/27 03:33:32;;;;;;;;;;;30.90;84.00;;;;;;5055165;28;19915;-71
2022/11/27 03:35:58;;;;;;;;;;;31.60;80.80;;;;;;5054123;28;20255;-71
2022/11/27 03:38:25;;;;;;;;;;;31.40;79.70;;;;;;5056187;28;19908;-72
2022/11/27 03:41:01;;;;;;;;;;;30.60;81.70;;;;;;5055351;28;20357;-70
2022/11/27 03:43:32;;;;;;;;;;;30.30;82.80;;;;;;5055830;28;19908;-70
2022/11/27 03:46:08;;;;;;;;;;;30.10;83.10;;;;;;5039577;28;19913;-69
2022/11/27 03:48:43;;;;;;;;;;;29.80;83.80;;;;;;5061687;28;20379;-71
2022/11/27 03:51:09;;;;;;;;;;;30.40;85.40;;;;;;5045012;28;20011;-71
2022/11/27 03:53:54;;;;;;;;;;;31.80;80.60;;;;;;5060516;28;19912;-71
2022/11/27 03:56:26;;;;;;;;;;;33.00;77.90;;;;;;5061176;28;19908;-72
2022/11/27 03:58:58;;;;;;;;;;;34.60;75.00;;;;;;5058959;28;19915;-72
2022/11/27 04:01:25;;;;;;;;;;;34.60;73.70;;;;;;5057155;28;20319;-72
2022/11/27 04:03:52;;;;;;;;;;;35.40;71.90;;;;;;5059841;28;19923;-72
2022/11/27 04:06:19;;;;;;;;;;;35.70;72.00;;;;;;5059260;28;20092;-72
2022/11/27 04:08:46;;;;;;;;;;;36.40;69.00;;;;;;5059073;28;19943;-71
2022/11/27 04:11:13;;;;;;;;;;;36.90;67.20;;;;;;5055891;28;20626;-71
2022/11/27 04:13:40;;;;;;;;;;;37.00;67.40;;;;;;5056598;28;19969;-70
2022/11/27 04:16:06;;;;;;;;;;;36.80;66.90;;;;;;5057239;28;19908;-70
2022/11/27 04:18:33;;;;;;;;;;;36.80;67.00;;;;;;5054409;28;19920;-70
2022/11/27 04:21:00;;;;;;;;;;;36.40;67.20;;;;;;5057113;28;20277;-70
2022/11/27 04:23:27;;;;;;;;;;;36.00;67.70;;;;;;5059276;28;19921;-71
2022/11/27 04:25:53;;;;;;;;;;;36.10;67.70;;;;;;5058995;28;19965;-71
2022/11/27 04:28:20;;;;;;;;;;;36.20;67.00;;;;;;5056595;28;20071;-71
2022/11/27 04:30:50;;;;;;;;;;;37.00;65.90;;;;;;5058552;28;19998;-71
2022/11/27 04:33:17;;;;;;;;;;;37.50;64.80;;;;;;5049076;28;20623;-70
2022/11/27 04:35:43;;;;;;;;;;;37.00;64.90;;;;;;5056228;28;19963;-71
2022/11/27 04:38:11;;;;;;;;;;;36.40;65.60;;;;;;5055993;28;19913;-71
2022/11/27 04:40:37;;;;;;;;;;;36.10;66.00;;;;;;5060923;28;19916;-71
2022/11/27 04:43:04;;;;;;;;;;;35.50;66.00;;;;;;5058581;28;19920;-72
2022/11/27 04:45:30;;;;;;;;;;;34.60;66.30;;;;;;5050296;28;19919;-72
2022/11/27 04:47:57;;;;;;;;;;;33.40;68.50;;;;;;5060289;28;19913;-73
2022/11/27 04:50:24;;;;;;;;;;;32.20;70.80;;;;;;5056536;28;20434;-71
2022/11/27 04:52:50;;;;;;;;;;;31.10;72.90;;;;;;5058960;28;20277;-74
2022/11/27 04:55:17;;;;;;;;;;;30.30;74.50;;;;;;5057329;28;19923;-72
2022/11/27 04:57:44;;;;;;;;;;;29.60;76.60;;;;;;5058202;28;20007;-72
2022/11/27 05:00:11;;;;;;;;;;;29.30;77.90;;;;;;5059154;28;20017;-73
2022/11/27 05:02:38;;;;;;;;;;;29.10;79.80;;;;;;5057386;28;19912;-73
2022/11/27 05:05:05;;;;;;;;;;;29.00;81.30;;;;;;5040059;28;19940;-72
2022/11/27 05:07:31;;;;;;;;;;;28.90;81.60;;;;;;5053486;28;20294;-73
2022/11/27 05:09:58;;;;;;;;;;;28.90;82.00;;;;;;5043678;28;19971;-71
2022/11/27 05:12:24;;;;;;;;;;;29.20;81.70;;;;;;5057717;28;20856;-74
2022/11/27 05:14:51;;;;;;;;;;;29.30;81.20;;;;;;5060133;28;19987;-72
2022/11/27 05:17:18;;;;;;;;;;;29.00;81.20;;;;;;5042778;28;19913;-72
2022/11/27 05:19:44;;;;;;;;;;;28.80;82.30;;;;;;5037157;28;19909;-71
2022/11/27 05:22:11;;;;;;;;;;;28.80;82.80;;;;;;5039321;28;20549;-71
2022/11/27 05:24:38;;;;;;;;;;;28.90;83.00;;;;;;5037417;28;19971;-72
2022/11/27 05:27:04;;;;;;;;;;;28.70;82.40;;;;;;5040160;28;19915;-70
2022/11/27 05:29:31;;;;;;;;;;;28.60;82.30;;;;;;5048661;28;19916;-72
2022/11/27 05:31:57;;;;;;;;;;;28.60;83.50;;;;;;5059955;28;20377;-72
2022/11/27 05:34:24;;;;;;;;;;;28.60;83.40;;;;;;5057989;28;20566;-72
2022/11/27 05:36:51;;;;;;;;;;;28.70;83.00;;;;;;5059165;28;19915;-71
2022/11/27 05:39:17;;;;;;;;;;;28.80;82.20;;;;;;5042014;28;19980;-70
2022/11/27 05:41:44;;;;;;;;;;;28.80;82.00;;;;;;5037100;28;20379;-70
2022/11/27 05:44:12;;;;;;;;;;;29.20;82.40;;;;;;5039650;28;19915;-71
2022/11/27 05:46:39;;;;;;;;;;;30.00;80.30;;;;;;5037050;28;19915;-71
2022/11/27 05:49:06;;;;;;;;;;;31.20;79.40;;;;;;5049580;28;20293;-71
2022/11/27 05:51:32;;;;;;;;;;;32.00;77.10;;;;;;5056740;28;19924;-72
2022/11/27 05:53:59;;;;;;;;;;;32.50;76.60;;;;;;5059424;28;19915;-71
2022/11/27 05:56:26;;;;;;;;;;;32.70;74.60;;;;;;5057102;28;20392;-71
2022/11/27 05:58:52;;;;;;;;;;;32.10;75.90;;;;;;5058294;28;19956;-72
2022/11/27 06:01:20;;;;;;;;;;;31.50;76.40;;;;;;5050132;28;19913;-72
2022/11/27 06:03:47;;;;;;;;;;;30.70;78.70;;;;;;5046382;28;19959;-73
2022/11/27 06:06:15;;;;;;;;;;;30.30;80.10;;;;;;5059294;28;20007;-73
2022/11/27 06:08:42;;;;;;;;;;;30.00;80.70;;;;;;5056285;28;20340;-74
2022/11/27 06:11:13;;;;;;;;;;;29.70;81.90;;;;;;5057802;28;19916;-74
2022/11/27 06:13:40;;;;;;;;;;;29.40;82.90;;;;;;5056631;28;20353;-73
2022/11/27 06:16:07;;;;;;;;;;;29.10;83.70;;;;;;5059080;28;20009;-73
2022/11/27 06:18:34;;;;;;;;;;;28.70;84.70;;;;;;5056385;28;19915;-73
2022/11/27 06:21:04;;;;;;;;;;;28.60;88.80;;;;;;5059346;28;19999;-72
2022/11/27 06:23:31;;;;;;;;;;;28.30;91.00;;;;;;5038812;28;19921;-74
2022/11/27 06:25:58;;;;;;;;;;;28.00;90.40;;;;;;5038086;28;19912;-72
2022/11/27 06:28:24;;;;;;;;;;;26.80;88.40;;;;;;5046467;28;19916;-73
2022/11/27 06:30:52;;;;;;;;;;;26.30;91.20;;;;;;5034394;28;20399;-72
2022/11/27 06:33:18;;;;;;;;;;;26.00;92.10;;;;;;5038774;28;19993;-73
2022/11/27 06:35:46;;;;;;;;;;;26.00;93.80;;;;;;5036395;28;19954;-72
2022/11/27 06:38:12;;;;;;;;;;;26.30;93.20;;;;;;5038977;28;19913;-72
2022/11/27 06:40:39;;;;;;;;;;;26.50;93.20;;;;;;5034233;28;19931;-73
2022/11/27 06:43:05;;;;;;;;;;;26.70;92.90;;;;;;5038879;28;19909;-71
2022/11/27 06:45:32;;;;;;;;;;;27.00;92.30;;;;;;5053521;28;19909;-72
2022/11/27 06:47:59;;;;;;;;;;;27.40;91.80;;;;;;5057353;28;19921;-72
2022/11/27 06:50:25;;;;;;;;;;;27.80;91.60;;;;;;5058222;28;19923;-72
2022/11/27 06:52:52;;;;;;;;;;;27.70;91.30;;;;;;5055930;28;20373;-72
2022/11/27 06:55:19;;;;;;;;;;;27.70;90.90;;;;;;5058801;28;19908;-72
2022/11/27 06:57:45;;;;;;;;;;;27.60;90.70;;;;;;5040786;28;20256;-72
2022/11/27 07:00:12;;;;;;;;;;;27.50;91.20;;;;;;5037156;28;20649;-73
2022/11/27 07:02:39;;;;;;;;;;;27.40;91.80;;;;;;5037167;28;19916;-73
2022/11/27 07:05:05;;;;;;;;;;;27.40;90.40;;;;;;5037785;28;19916;-72
2022/11/27 07:07:32;;;;;;;;;;;27.30;91.00;;;;;;5051107;28;19995;-71
2022/11/27 07:09:59;;;;;;;;;;;27.30;90.70;;;;;;5055095;28;19920;-73
2022/11/27 07:12:25;;;;;;;;;;;27.40;90.70;;;;;;5058038;28;19909;-72
2022/11/27 07:14:52;;;;;;;;;;;27.40;90.70;;;;;;5056376;28;20364;-72
2022/11/27 07:17:18;;;;;;;;;;;27.40;91.00;;;;;;5056410;28;19909;-72
2022/11/27 07:19:45;;;;;;;;;;;27.30;91.10;;;;;;5056078;28;20273;-73
2022/11/27 07:22:12;;;;;;;;;;;27.30;91.80;;;;;;5059412;28;19931;-71
2022/11/27 07:24:39;;;;;;;;;;;27.30;92.40;;;;;;5053095;28;19912;-72
2022/11/27 07:27:05;;;;;;;;;;;27.20;92.80;;;;;;5040550;28;20637;-71
2022/11/27 07:29:32;;;;;;;;;;;27.10;93.20;;;;;;5054679;28;19939;-72
2022/11/27 07:31:59;;;;;;;;;;;26.90;93.70;;;;;;5059769;28;19919;-72
2022/11/27 07:34:25;;;;;;;;;;;26.90;94.10;;;;;;5062113;28;19952;-72
2022/11/27 07:36:52;;;;;;;;;;;26.70;93.90;;;;;;5059892;28;20361;-71
2022/11/27 07:39:18;;;;;;;;;;;26.60;94.30;;;;;;5060903;28;19916;-72
2022/11/27 07:41:45;;;;;;;;;;;26.40;94.00;;;;;;5060795;28;19909;-72
2022/11/27 07:44:12;;;;;;;;;;;26.20;94.30;;;;;;5061058;28;19934;-73
2022/11/27 07:46:38;;;;;;;;;;;26.10;94.60;;;;;;5061515;28;19911;-72
2022/11/27 07:49:05;;;;;;;;;;;26.00;94.50;;;;;;5059097;28;20315;-73
2022/11/27 07:51:32;;;;;;;;;;;25.90;94.70;;;;;;5048488;28;19975;-72
2022/11/27 07:53:58;;;;;;;;;;;25.80;95.10;;;;;;5040039;28;19919;-72
2022/11/27 07:56:26;;;;;;;;;;;25.80;95.40;;;;;;5039904;28;19920;-73
2022/11/27 07:58:53;;;;;;;;;;;25.70;95.50;;;;;;5039530;28;20354;-71
2022/11/27 08:01:21;;;;;;;;;;;25.60;95.90;;;;;;5040758;28;20369;-71
2022/11/27 08:03:47;;;;;;;;;;;25.50;96.30;;;;;;5039001;28;20388;-73
2022/11/27 08:06:24;;;;;;;;;;;25.40;96.50;;;;;;5040360;28;19909;-73
2022/11/27 08:08:51;;;;;;;;;;;25.40;96.50;;;;;;5040535;28;20049;-71
2022/11/27 08:11:17;;;;;;;;;;;25.40;96.90;;;;;;5040538;28;20006;-72
2022/11/27 08:13:44;;;;;;;;;;;25.50;97.50;;;;;;5057428;28;19935;-72
2022/11/27 08:16:11;;;;;;;;;;;25.50;97.70;;;;;;5059099;28;19908;-72
2022/11/27 08:18:37;;;;;;;;;;;25.50;97.80;;;;;;5053034;28;20377;-71
2022/11/27 08:21:04;;;;;;;;;;;25.50;96.50;;;;;;5041338;28;19920;-73
2022/11/27 08:23:31;;;;;;;;;;;25.50;95.40;;;;;;5060196;28;19924;-71
2022/11/27 08:25:57;;;;;;;;;;;25.40;92.30;;;;;;5059084;28;20682;-73
2022/11/27 08:28:24;;;;;;;;;;;25.40;91.80;;;;;;5060055;28;19924;-72
2022/11/27 08:31:01;;;;;;;;;;;25.40;92.50;;;;;;5059996;28;19970;-73
2022/11/27 08:33:28;;;;;;;;;;;25.30;93.80;;;;;;5059581;28;19909;-72
2022/11/27 08:35:54;;;;;;;;;;;25.00;95.10;;;;;;5047755;28;19968;-73
2022/11/27 08:38:21;;;;;;;;;;;24.80;95.00;;;;;;5039837;28;19916;-74
2022/11/27 08:40:55;;;;;;;;;;;24.50;97.10;;;;;;5040780;28;20376;-73
2022/11/27 08:43:22;;;;;;;;;;;24.30;97.40;;;;;;5039848;28;20268;-71
2022/11/27 08:45:48;;;;;;;;;;;24.00;97.60;;;;;;5043640;28;19912;-74
2022/11/27 08:48:15;;;;;;;;;;;23.70;96.90;;;;;;5057722;28;19957;-73
2022/11/27 08:50:42;;;;;;;;;;;23.50;98.50;;;;;;5060259;28;19917;-73
2022/11/27 08:53:08;;;;;;;;;;;23.20;99.20;;;;;;5058715;28;20376;-73
2022/11/27 08:55:35;;;;;;;;;;;23.00;99.60;;;;;;5053672;28;19919;-73
2022/11/27 08:58:02;;;;;;;;;;;22.70;99.90;;;;;;5038313;28;19943;-73
2022/11/27 09:00:29;;;;;;;;;;;22.60;99.90;;;;;;5039538;28;20487;-73
2022/11/27 09:02:58;;;;;;;;;;;22.60;99.90;;;;;;5041701;28;20292;-73
2022/11/27 09:05:25;;;;;;;;;;;22.50;99.90;;;;;;5049324;28;19917;-75
2022/11/27 09:07:52;;;;;;;;;;;22.50;99.90;;;;;;5049578;28;19921;-74
2022/11/27 09:10:19;;;;;;;;;;;22.60;99.90;;;;;;5045889;28;20422;-72
2022/11/27 09:12:45;;;;;;;;;;;22.50;99.90;;;;;;5044469;28;19994;-71
2022/11/27 09:15:12;;;;;;;;;;;22.50;99.90;;;;;;5046242;28;19966;-72
2022/11/27 09:17:39;;;;;;;;;;;22.40;99.90;;;;;;5051175;28;19920;-72
2022/11/27 09:20:06;;;;;;;;;;;22.40;99.90;;;;;;5057502;28;19912;-72
2022/11/27 09:22:34;;;;;;;;;;;22.30;99.90;;;;;;5058702;28;19932;-72
2022/11/27 09:25:00;;;;;;;;;;;22.40;99.90;;;;;;5058958;28;20265;-73
2022/11/27 09:27:27;;;;;;;;;;;22.30;99.90;;;;;;5058562;28;19908;-72
2022/11/27 09:29:54;;;;;;;;;;;22.20;99.90;;;;;;5044896;28;19925;-71
2022/11/27 09:32:21;;;;;;;;;;;22.10;99.90;;;;;;5036568;28;19959;-72
2022/11/27 09:34:50;;;;;;;;;;;22.10;99.90;;;;;;5049496;28;19919;-72
2022/11/27 09:37:17;;;;;;;;;;;22.10;99.90;;;;;;5050486;28;19952;-72
2022/11/27 09:39:43;;;;;;;;;;;22.20;99.90;;;;;;5038664;28;20026;-72
2022/11/27 09:42:15;;;;;;;;;;;22.20;99.90;;;;;;5037812;28;19920;-71
2022/11/27 09:44:47;;;;;;;;;;;22.10;99.90;;;;;;5052868;28;20122;-71
2022/11/27 09:47:37;;;;;;;;;;;22.10;99.90;;;;;;5057429;28;19913;-71
2022/11/27 09:50:07;;;;;;;;;;;22.00;99.90;;;;;;5058594;28;19912;-73
2022/11/27 09:52:37;;;;;;;;;;;22.00;99.90;;;;;;5058935;28;19908;-72
2022/11/27 09:55:03;;;;;;;;;;;21.90;99.90;;;;;;5058524;28;19914;-72
2022/11/27 09:57:35;;;;;;;;;;;22.00;99.90;;;;;;5037472;28;19957;-71
2022/11/27 10:00:05;;;;;;;;;;;22.00;99.90;;;;;;5039474;28;19912;-72
2022/11/27 10:02:32;;;;;;;;;;;22.00;99.90;;;;;;5036800;28;19987;-71
2022/11/27 10:05:00;;;;;;;;;;;22.10;99.90;;;;;;5050871;28;19912;-71
2022/11/27 10:07:33;;;;;;;;;;;22.10;99.90;;;;;;5042064;28;20075;-72
2022/11/27 10:10:00;;;;;;;;;;;22.10;99.90;;;;;;5039017;28;19917;-71
2022/11/27 10:12:35;;;;;;;;;;;22.10;99.90;;;;;;5036079;28;20453;-71
2022/11/27 10:15:02;;;;;;;;;;;22.10;99.90;;;;;;5039478;28;20000;-71
2022/11/27 10:17:51;;;;;;;;;;;22.10;99.90;;;;;;5036277;28;20064;-71
2022/11/27 10:20:36;;;;;;;;;;;22.20;99.90;;;;;;5035327;28;19951;-72
2022/11/27 10:23:09;;;;;;;;;;;22.20;99.90;;;;;;5039124;28;19939;-72
2022/11/27 10:25:48;;;;;;;;;;;22.10;99.90;;;;;;5038350;28;19913;-73
2022/11/27 10:28:14;;;;;;;;;;;22.10;99.90;;;;;;5054098;28;19960;-72
2022/11/27 10:30:52;;;;;;;;;;;22.00;99.90;;;;;;5058024;28;19920;-72
2022/11/27 10:33:24;;;;;;;;;;;21.90;99.90;;;;;;5051107;28;20392;-72
2022/11/27 10:35:51;;;;;;;;;;;21.80;99.90;;;;;;5037118;28;19958;-71
2022/11/27 10:38:26;;;;;;;;;;;21.70;99.90;;;;;;5036529;28;19909;-71
2022/11/27 10:41:11;;;;;;;;;;;21.50;99.90;;;;;;5038403;28;20030;-71
2022/11/27 10:43:38;;;;;;;;;;;21.50;99.90;;;;;;5037307;28;19920;-72
2022/11/27 10:46:10;;;;;;;;;;;21.40;99.90;;;;;;5038743;28;19909;-72
2022/11/27 10:48:37;;;;;;;;;;;21.50;99.90;;;;;;5050566;28;20499;-70
2022/11/27 10:51:11;;;;;;;;;;;21.50;99.90;;;;;;5058498;28;20410;-71
2022/11/27 10:53:39;;;;;;;;;;;21.40;99.90;;;;;;5056420;28;19995;-69
2022/11/27 10:56:14;;;;;;;;;;;21.40;99.90;;;;;;5058439;28;19919;-71
2022/11/27 10:58:55;;;;;;;;;;;21.40;99.90;;;;;;5057391;28;19909;-71
2022/11/27 11:01:23;;;;;;;;;;;21.40;99.90;;;;;;5048387;28;19920;-70
2022/11/27 11:03:50;;;;;;;;;;;21.40;99.90;;;;;;5035906;28;19909;-73
2022/11/27 11:06:25;;;;;;;;;;;21.40;99.90;;;;;;5037498;28;20341;-72
2022/11/27 11:09:03;;;;;;;;;;;21.40;99.90;;;;;;5037336;28;19913;-71
2022/11/27 11:11:30;;;;;;;;;;;21.40;99.90;;;;;;5036005;28;19921;-71
2022/11/27 11:13:56;;;;;;;;;;;21.30;99.90;;;;;;5038618;28;19916;-70
2022/11/27 11:16:24;;;;;;;;;;;21.30;99.90;;;;;;5036517;28;20269;-72
2022/11/27 11:18:52;;;;;;;;;;;21.30;99.90;;;;;;5037305;28;20718;-72
2022/11/27 11:21:18;;;;;;;;;;;21.30;99.90;;;;;;5037722;28;19913;-70
2022/11/27 11:23:52;;;;;;;;;;;21.30;99.90;;;;;;5036290;28;19967;-69
2022/11/27 11:26:30;;;;;;;;;;;21.30;99.90;;;;;;5038014;28;19909;-74
2022/11/27 11:28:58;;;;;;;;;;;21.20;99.90;;;;;;5043908;28;19919;-71
2022/11/27 11:31:36;;;;;;;;;;;21.10;99.90;;;;;;5050666;28;19921;-71
2022/11/27 11:34:04;;;;;;;;;;;21.10;99.90;;;;;;5058263;28;20487;-71
2022/11/27 11:36:31;;;;;;;;;;;21.00;99.90;;;;;;5072015;28;20286;-71
2022/11/27 11:38:58;;;;;;;;;;;21.00;99.90;;;;;;5057262;28;19915;-72
2022/11/27 11:41:35;;;;;;;;;;;21.00;99.90;;;;;;5056942;28;20285;-73
2022/11/27 11:44:01;;;;;;;;;;;21.00;99.90;;;;;;5057581;28;19908;-71
2022/11/27 11:46:30;;;;;;;;;;;21.00;99.90;;;;;;5055695;28;19908;-71
2022/11/27 11:49:14;;;;;;;;;;;21.00;99.90;;;;;;5057066;28;20333;-72
2022/11/27 11:52:01;;;;;;;;;;;21.10;99.90;;;;;;5036342;28;20623;-72
2022/11/27 11:54:31;;;;;;;;;;;21.00;99.90;;;;;;5036157;28;19913;-72
2022/11/27 11:56:59;;;;;;;;;;;21.00;99.90;;;;;;5045950;28;19936;-73
2022/11/27 11:59:34;;;;;;;;;;;20.90;99.90;;;;;;5056710;28;19969;-73
2022/11/27 12:02:19;;;;;;;;;;;20.70;99.90;;;;;;5056995;28;19909;-73
2022/11/27 12:05:17;;;;;;;;;;;20.80;99.90;;;;;;5054378;28;19915;-72
2022/11/27 12:08:02;;;;;;;;;;;20.70;99.90;;;;;;5043724;28;19908;-73
2022/11/27 12:10:29;;;;;;;;;;;20.70;99.90;;;;;;5059263;28;19944;-75
2022/11/27 12:12:56;;;;;;;;;;;20.70;99.90;;;;;;5048588;28;19912;-73
2022/11/27 12:15:25;;;;;;;;;;;20.70;99.90;;;;;;5041766;28;19909;-72
2022/11/27 12:17:59;;;;;;;;;;;20.60;99.90;;;;;;5039092;28;20083;-72
2022/11/27 12:20:44;;;;;;;;;;;20.60;99.90;;;;;;5041493;28;19944;-71
2022/11/27 12:23:17;;;;;;;;;;;20.50;99.90;;;;;;5041040;28;19967;-73
2022/11/27 12:25:47;;;;;;;;;;;20.50;99.90;;;;;;5055410;28;19920;-70
2022/11/27 12:28:22;;;;;;;;;;;20.40;99.90;;;;;;5061533;28;19915;-72
2022/11/27 12:30:52;;;;;;;;;;;20.40;99.90;;;;;;5036200;28;19920;-74
2022/11/27 12:33:37;;;;;;;;;;;20.30;99.90;;;;;;5040879;28;19909;-74
2022/11/27 12:36:16;;;;;;;;;;;20.10;99.90;;;;;;5059275;28;19938;-72
2022/11/27 12:38:45;;;;;;;;;;;20.20;99.90;;;;;;5058544;28;20357;-72
2022/11/27 12:41:12;;;;;;;;;;;20.10;99.90;;;;;;5061080;28;19912;-72
2022/11/27 12:43:51;;;;;;;;;;;20.00;99.90;;;;;;5058473;28;19910;-73
2022/11/27 12:46:24;;;;;;;;;;;20.00;99.90;;;;;;5060778;28;20315;-73
2022/11/27 12:48:50;;;;;;;;;;;19.90;99.90;;;;;;5057607;28;20624;-73
2022/11/27 12:51:17;;;;;;;;;;;19.90;99.90;;;;;;5059656;28;19977;-72
2022/11/27 12:54:02;;;;;;;;;;;19.80;99.90;;;;;;5058138;28;19920;-71
2022/11/27 12:56:32;;;;;;;;;;;19.90;99.90;;;;;;5059998;28;19912;-71
2022/11/27 12:59:04;;;;;;;;;;;19.80;99.90;;;;;;5058044;28;19916;-70
2022/11/27 13:01:34;;;;;;;;;;;19.70;99.90;;;;;;5043544;28;19912;-71
2022/11/27 13:04:10;;;;;;;;;;;19.60;99.90;;;;;;5038526;28;19909;-70
2022/11/27 13:06:45;;;;;;;;;;;19.60;99.90;;;;;;5039798;28;20459;-72
2022/11/27 13:09:25;;;;;;;;;;;19.60;99.90;;;;;;5048759;28;19962;-70
2022/11/27 13:11:52;;;;;;;;;;;19.60;99.90;;;;;;5057351;28;19919;-72
2022/11/27 13:14:21;;;;;;;;;;;19.60;99.90;;;;;;5060449;28;20285;-70
2022/11/27 13:17:01;;;;;;;;;;;19.70;99.90;;;;;;5058287;28;19909;-70
2022/11/27 13:19:32;;;;;;;;;;;19.60;99.90;;;;;;5043911;28;19912;-70
2022/11/27 13:21:59;;;;;;;;;;;19.60;99.90;;;;;;5036978;28;20023;-70
2022/11/27 13:24:27;;;;;;;;;;;19.50;99.90;;;;;;5039582;28;20694;-71
2022/11/27 13:27:00;;;;;;;;;;;19.60;99.90;;;;;;5037913;28;19993;-71
2022/11/27 13:29:28;;;;;;;;;;;19.60;99.90;;;;;;5039113;28;19913;-71
2022/11/27 13:31:56;;;;;;;;;;;19.50;99.90;;;;;;5037901;28;19909;-71
2022/11/27 13:34:25;;;;;;;;;;;19.40;99.90;;;;;;5039689;28;20012;-69
2022/11/27 13:36:58;;;;;;;;;;;19.40;99.90;;;;;;5038289;28;19916;-72
2022/11/27 13:39:28;;;;;;;;;;;19.30;99.90;;;;;;5039642;28;19955;-70
2022/11/27 13:42:16;;;;;;;;;;;19.20;99.90;;;;;;5037392;28;19954;-71
2022/11/27 13:44:43;;;;;;;;;;;19.10;99.90;;;;;;5039049;28;19913;-72
2022/11/27 13:47:13;;;;;;;;;;;19.20;99.90;;;;;;5039227;28;19966;-70
2022/11/27 13:49:42;;;;;;;;;;;19.10;99.90;;;;;;5039273;28;19912;-71
2022/11/27 13:52:20;;;;;;;;;;;19.20;99.90;;;;;;5038630;28;20272;-70
2022/11/27 13:54:52;;;;;;;;;;;19.20;99.90;;;;;;5037683;28;19920;-71
2022/11/27 13:57:20;;;;;;;;;;;19.10;99.90;;;;;;5038413;28;19931;-71
2022/11/27 13:59:59;;;;;;;;;;;19.10;99.90;;;;;;5040160;28;19908;-70
2022/11/27 14:02:39;;;;;;;;;;;19.00;99.90;;;;;;5058579;28;19991;-72
2022/11/27 14:05:06;;;;;;;;;;;19.00;99.90;;;;;;5056369;28;19905;-69
2022/11/27 14:07:37;;;;;;;;;;;19.00;99.90;;;;;;5057650;28;20000;-71
2022/11/27 14:10:23;;;;;;;;;;;19.00;99.90;;;;;;5056425;28;20804;-70
2022/11/27 14:13:02;;;;;;;;;;;19.00;99.90;;;;;;5056483;28;19969;-72
2022/11/27 14:15:30;;;;;;;;;;;19.00;99.90;;;;;;5041689;28;19923;-73
2022/11/27 14:18:15;;;;;;;;;;;18.90;99.90;;;;;;5036850;28;19962;-71
2022/11/27 14:20:47;;;;;;;;;;;18.80;99.90;;;;;;5039203;28;19931;-72
2022/11/27 14:23:13;;;;;;;;;;;18.80;99.90;;;;;;5037687;28;19925;-71
2022/11/27 14:25:40;;;;;;;;;;;18.80;99.90;;;;;;5038432;28;19920;-72
2022/11/27 14:28:16;;;;;;;;;;;18.80;99.90;;;;;;5034956;28;19920;-71
2022/11/27 14:30:47;;;;;;;;;;;18.80;99.90;;;;;;5038368;28;20015;-72